sensor_id;sensor_type;location;lat;lon;timestamp;P1;durP1;ratioP1;P2;durP2;ratioP2
23117;SDS011;11728;50.624;6.014;2022-11-20T00:01:55;28.75;;;17.45;;
23117;SDS011;11728;50.624;6.014;2022-11-20T00:07:16;35.03;;;17.83;;
23117;SDS011;11728;50.624;6.014;2022-11-20T00:12:37;25.60;;;16.45;;
23117;SDS011;11728;50.624;6.014;2022-11-20T00:17:58;32.08;;;18.98;;
23117;SDS011;11728;50.624;6.014;2022-11-20T00:23:19;29.90;;;18.55;;
23117;SDS011;11728;50.624;6.014;2022-11-20T00:28:40;33.28;;;19.95;;
23117;SDS011;11728;50.624;6.014;2022-11-20T00:34:02;35.92;;;20.25;;
23117;SDS011;11728;50.624;6.014;2022-11-20T00:39:23;41.47;;;22.42;;
23117;SDS011;11728;50.624;6.014;2022-11-20T00:44:44;52.80;;;24.25;;
23117;SDS011;11728;50.624;6.014;2022-11-20T00:50:05;45.80;;;24.92;;
23117;SDS011;11728;50.624;6.014;2022-11-20T00:55:26;53.83;;;25.33;;
23117;SDS011;11728;50.624;6.014;2022-11-20T01:00:46;48.35;;;24.83;;
23117;SDS011;11728;50.624;6.014;2022-11-20T01:11:43;112.13;;;26.45;;
23117;SDS011;11728;50.624;6.014;2022-11-20T01:17:04;103.72;;;25.75;;
23117;SDS011;11728;50.624;6.014;2022-11-20T01:22:25;54.42;;;24.60;;
23117;SDS011;11728;50.624;6.014;2022-11-20T01:27:46;75.18;;;24.45;;
23117;SDS011;11728;50.624;6.014;2022-11-20T01:33:07;61.20;;;24.60;;
23117;SDS011;11728;50.624;6.014;2022-11-20T01:38:28;61.92;;;25.88;;
23117;SDS011;11728;50.624;6.014;2022-11-20T01:43:49;43.83;;;22.23;;
23117;SDS011;11728;50.624;6.014;2022-11-20T01:49:11;39.80;;;22.92;;
23117;SDS011;11728;50.624;6.014;2022-11-20T01:54:40;46.63;;;25.45;;
23117;SDS011;11728;50.624;6.014;2022-11-20T02:00:07;47.20;;;24.40;;
23117;SDS011;11728;50.624;6.014;2022-11-20T02:05:41;74.18;;;23.83;;
23117;SDS011;11728;50.624;6.014;2022-11-20T02:11:08;136.95;;;24.02;;
23117;SDS011;11728;50.624;6.014;2022-11-20T02:16:33;165.93;;;26.88;;
23117;SDS011;11728;50.624;6.014;2022-11-20T02:22:11;162.85;;;25.17;;
23117;SDS011;11728;50.624;6.014;2022-11-20T02:27:38;173.98;;;28.00;;
23117;SDS011;11728;50.624;6.014;2022-11-20T02:32:59;186.15;;;27.45;;
23117;SDS011;11728;50.624;6.014;2022-11-20T02:38:20;132.40;;;23.83;;
23117;SDS011;11728;50.624;6.014;2022-11-20T02:43:41;168.68;;;25.98;;
23117;SDS011;11728;50.624;6.014;2022-11-20T02:49:02;120.65;;;26.30;;
23117;SDS011;11728;50.624;6.014;2022-11-20T02:54:23;151.40;;;25.73;;
23117;SDS011;11728;50.624;6.014;2022-11-20T02:59:45;83.07;;;23.25;;
23117;SDS011;11728;50.624;6.014;2022-11-20T03:05:06;164.93;;;25.63;;
23117;SDS011;11728;50.624;6.014;2022-11-20T03:10:27;116.20;;;23.40;;
23117;SDS011;11728;50.624;6.014;2022-11-20T03:15:47;202.73;;;24.75;;
23117;SDS011;11728;50.624;6.014;2022-11-20T03:21:09;61.38;;;20.38;;
23117;SDS011;11728;50.624;6.014;2022-11-20T03:26:31;82.32;;;21.20;;
23117;SDS011;11728;50.624;6.014;2022-11-20T03:31:52;46.55;;;19.15;;
23117;SDS011;11728;50.624;6.014;2022-11-20T03:37:13;28.25;;;15.85;;
23117;SDS011;11728;50.624;6.014;2022-11-20T03:42:34;36.20;;;18.30;;
23117;SDS011;11728;50.624;6.014;2022-11-20T03:48:06;32.83;;;17.25;;
23117;SDS011;11728;50.624;6.014;2022-11-20T03:53:27;30.00;;;16.55;;
23117;SDS011;11728;50.624;6.014;2022-11-20T03:58:48;24.75;;;14.10;;
23117;SDS011;11728;50.624;6.014;2022-11-20T04:04:09;24.92;;;14.57;;
23117;SDS011;11728;50.624;6.014;2022-11-20T04:09:30;26.65;;;14.45;;
23117;SDS011;11728;50.624;6.014;2022-11-20T04:14:50;21.92;;;12.18;;
23117;SDS011;11728;50.624;6.014;2022-11-20T04:20:11;21.30;;;13.15;;
23117;SDS011;11728;50.624;6.014;2022-11-20T04:25:32;23.65;;;13.93;;
23117;SDS011;11728;50.624;6.014;2022-11-20T04:30:53;23.65;;;13.13;;
23117;SDS011;11728;50.624;6.014;2022-11-20T04:36:17;24.17;;;12.77;;
23117;SDS011;11728;50.624;6.014;2022-11-20T04:41:40;59.97;;;15.43;;
23117;SDS011;11728;50.624;6.014;2022-11-20T04:47:00;25.35;;;13.82;;
23117;SDS011;11728;50.624;6.014;2022-11-20T04:52:21;23.60;;;12.07;;
23117;SDS011;11728;50.624;6.014;2022-11-20T04:57:42;18.00;;;10.50;;
23117;SDS011;11728;50.624;6.014;2022-11-20T05:03:03;19.48;;;11.77;;
23117;SDS011;11728;50.624;6.014;2022-11-20T05:08:24;23.48;;;13.30;;
23117;SDS011;11728;50.624;6.014;2022-11-20T05:13:45;18.70;;;11.48;;
23117;SDS011;11728;50.624;6.014;2022-11-20T05:19:05;20.48;;;11.63;;
23117;SDS011;11728;50.624;6.014;2022-11-20T05:24:26;25.02;;;13.77;;
23117;SDS011;11728;50.624;6.014;2022-11-20T05:29:47;25.27;;;13.35;;
23117;SDS011;11728;50.624;6.014;2022-11-20T05:35:08;18.92;;;11.82;;
23117;SDS011;11728;50.624;6.014;2022-11-20T05:40:28;25.70;;;14.13;;
23117;SDS011;11728;50.624;6.014;2022-11-20T05:45:53;29.42;;;14.98;;
23117;SDS011;11728;50.624;6.014;2022-11-20T05:51:15;33.38;;;15.27;;
23117;SDS011;11728;50.624;6.014;2022-11-20T05:56:38;25.60;;;14.93;;
23117;SDS011;11728;50.624;6.014;2022-11-20T06:01:58;26.98;;;13.80;;
23117;SDS011;11728;50.624;6.014;2022-11-20T06:07:19;23.33;;;13.95;;
23117;SDS011;11728;50.624;6.014;2022-11-20T06:12:40;22.92;;;12.95;;
23117;SDS011;11728;50.624;6.014;2022-11-20T06:18:01;19.33;;;12.00;;
23117;SDS011;11728;50.624;6.014;2022-11-20T06:23:21;20.38;;;11.88;;
23117;SDS011;11728;50.624;6.014;2022-11-20T06:28:42;19.15;;;11.98;;
23117;SDS011;11728;50.624;6.014;2022-11-20T06:34:04;20.92;;;12.68;;
23117;SDS011;11728;50.624;6.014;2022-11-20T06:39:26;18.08;;;12.02;;
23117;SDS011;11728;50.624;6.014;2022-11-20T06:44:47;20.15;;;12.57;;
23117;SDS011;11728;50.624;6.014;2022-11-20T06:50:08;20.60;;;12.70;;
23117;SDS011;11728;50.624;6.014;2022-11-20T06:55:29;19.27;;;12.75;;
23117;SDS011;11728;50.624;6.014;2022-11-20T07:00:51;18.65;;;12.07;;
23117;SDS011;11728;50.624;6.014;2022-11-20T07:06:11;22.80;;;14.45;;
23117;SDS011;11728;50.624;6.014;2022-11-20T07:11:32;23.88;;;15.00;;
23117;SDS011;11728;50.624;6.014;2022-11-20T07:16:53;23.10;;;15.23;;
23117;SDS011;11728;50.624;6.014;2022-11-20T07:22:14;26.52;;;15.68;;
23117;SDS011;11728;50.624;6.014;2022-11-20T07:27:35;27.30;;;17.55;;
23117;SDS011;11728;50.624;6.014;2022-11-20T07:32:56;33.20;;;18.85;;
23117;SDS011;11728;50.624;6.014;2022-11-20T07:38:17;42.97;;;21.83;;
23117;SDS011;11728;50.624;6.014;2022-11-20T07:43:38;45.08;;;23.45;;
23117;SDS011;11728;50.624;6.014;2022-11-20T07:48:59;42.90;;;22.70;;
23117;SDS011;11728;50.624;6.014;2022-11-20T07:54:20;42.53;;;22.85;;
23117;SDS011;11728;50.624;6.014;2022-11-20T07:59:41;43.97;;;23.25;;
23117;SDS011;11728;50.624;6.014;2022-11-20T08:05:02;47.53;;;24.08;;
23117;SDS011;11728;50.624;6.014;2022-11-20T08:10:23;51.47;;;25.17;;
23117;SDS011;11728;50.624;6.014;2022-11-20T08:15:47;49.40;;;23.40;;
23117;SDS011;11728;50.624;6.014;2022-11-20T08:21:10;49.95;;;23.45;;
23117;SDS011;11728;50.624;6.014;2022-11-20T08:26:31;48.28;;;23.05;;
23117;SDS011;11728;50.624;6.014;2022-11-20T08:31:52;45.65;;;23.02;;
23117;SDS011;11728;50.624;6.014;2022-11-20T08:37:13;34.55;;;18.17;;
23117;SDS011;11728;50.624;6.014;2022-11-20T08:42:34;37.65;;;20.92;;
23117;SDS011;11728;50.624;6.014;2022-11-20T08:47:59;39.80;;;20.27;;
23117;SDS011;11728;50.624;6.014;2022-11-20T08:53:20;38.20;;;20.75;;
23117;SDS011;11728;50.624;6.014;2022-11-20T08:58:41;35.40;;;19.83;;
23117;SDS011;11728;50.624;6.014;2022-11-20T09:04:02;34.53;;;18.98;;
23117;SDS011;11728;50.624;6.014;2022-11-20T09:09:25;33.60;;;17.98;;
23117;SDS011;11728;50.624;6.014;2022-11-20T09:14:45;28.48;;;16.30;;
23117;SDS011;11728;50.624;6.014;2022-11-20T09:20:06;27.45;;;16.85;;
23117;SDS011;11728;50.624;6.014;2022-11-20T09:25:28;30.05;;;16.67;;
23117;SDS011;11728;50.624;6.014;2022-11-20T09:30:48;29.83;;;15.65;;
23117;SDS011;11728;50.624;6.014;2022-11-20T09:36:09;29.42;;;15.90;;
23117;SDS011;11728;50.624;6.014;2022-11-20T09:47:46;27.08;;;14.10;;
23117;SDS011;11728;50.624;6.014;2022-11-20T09:58:44;25.17;;;14.73;;
23117;SDS011;11728;50.624;6.014;2022-11-20T10:04:13;26.40;;;14.60;;
23117;SDS011;11728;50.624;6.014;2022-11-20T10:09:38;25.02;;;13.40;;
23117;SDS011;11728;50.624;6.014;2022-11-20T10:26:31;24.63;;;12.85;;
23117;SDS011;11728;50.624;6.014;2022-11-20T10:32:18;21.93;;;13.67;;
23117;SDS011;11728;50.624;6.014;2022-11-20T10:37:44;27.17;;;14.38;;
23117;SDS011;11728;50.624;6.014;2022-11-20T10:43:24;20.50;;;11.65;;
23117;SDS011;11728;50.624;6.014;2022-11-20T10:48:52;26.65;;;13.75;;
23117;SDS011;11728;50.624;6.014;2022-11-20T10:59:55;19.30;;;11.82;;
23117;SDS011;11728;50.624;6.014;2022-11-20T11:05:44;19.83;;;9.50;;
23117;SDS011;11728;50.624;6.014;2022-11-20T11:11:26;15.48;;;7.95;;
23117;SDS011;11728;50.624;6.014;2022-11-20T11:22:16;12.25;;;7.72;;
23117;SDS011;11728;50.624;6.014;2022-11-20T11:27:45;10.90;;;6.90;;
23117;SDS011;11728;50.624;6.014;2022-11-20T11:33:12;12.15;;;6.85;;
23117;SDS011;11728;50.624;6.014;2022-11-20T11:38:41;12.18;;;4.85;;
23117;SDS011;11728;50.624;6.014;2022-11-20T12:01:16;5.95;;;3.25;;
23117;SDS011;11728;50.624;6.014;2022-11-20T12:06:58;8.75;;;3.33;;
23117;SDS011;11728;50.624;6.014;2022-11-20T12:12:31;4.80;;;2.53;;
23117;SDS011;11728;50.624;6.014;2022-11-20T12:17:39;5.82;;;2.70;;
23117;SDS011;11728;50.624;6.014;2022-11-20T12:22:52;4.47;;;2.03;;
23117;SDS011;11728;50.624;6.014;2022-11-20T12:55:58;8.90;;;3.25;;
23117;SDS011;11728;50.624;6.014;2022-11-20T13:06:44;4.63;;;1.50;;
23117;SDS011;11728;50.624;6.014;2022-11-20T13:11:56;8.02;;;1.90;;
23117;SDS011;11728;50.624;6.014;2022-11-20T13:27:23;3.28;;;1.08;;
23117;SDS011;11728;50.624;6.014;2022-11-20T13:32:24;2.35;;;1.10;;
23117;SDS011;11728;50.624;6.014;2022-11-20T13:42:28;5.72;;;1.60;;
23117;SDS011;11728;50.624;6.014;2022-11-20T13:47:29;4.82;;;1.13;;
23117;SDS011;11728;50.624;6.014;2022-11-20T14:03:32;20.23;;;10.70;;
23117;SDS011;11728;50.624;6.014;2022-11-20T14:13:58;5.35;;;2.25;;
23117;SDS011;11728;50.624;6.014;2022-11-20T14:19:17;6.03;;;1.80;;
23117;SDS011;11728;50.624;6.014;2022-11-20T14:24:23;5.68;;;1.50;;
23117;SDS011;11728;50.624;6.014;2022-11-20T14:29:34;6.47;;;2.08;;
23117;SDS011;11728;50.624;6.014;2022-11-20T14:34:38;6.00;;;1.40;;
23117;SDS011;11728;50.624;6.014;2022-11-20T14:39:42;6.53;;;1.92;;
23117;SDS011;11728;50.624;6.014;2022-11-20T14:44:48;4.25;;;1.55;;
23117;SDS011;11728;50.624;6.014;2022-11-20T14:49:50;6.90;;;1.75;;
23117;SDS011;11728;50.624;6.014;2022-11-20T14:54:53;5.18;;;2.38;;
23117;SDS011;11728;50.624;6.014;2022-11-20T15:00:07;5.15;;;2.25;;
23117;SDS011;11728;50.624;6.014;2022-11-20T15:05:19;7.35;;;1.83;;
23117;SDS011;11728;50.624;6.014;2022-11-20T15:10:23;3.65;;;1.35;;
23117;SDS011;11728;50.624;6.014;2022-11-20T15:20:32;4.95;;;1.90;;
23117;SDS011;11728;50.624;6.014;2022-11-20T15:25:35;5.07;;;2.00;;
23117;SDS011;11728;50.624;6.014;2022-11-20T15:30:38;3.85;;;1.98;;
23117;SDS011;11728;50.624;6.014;2022-11-20T15:35:39;8.40;;;6.00;;
23117;SDS011;11728;50.624;6.014;2022-11-20T15:40:40;6.90;;;3.80;;
23117;SDS011;11728;50.624;6.014;2022-11-20T15:51:03;3.65;;;1.92;;
23117;SDS011;11728;50.624;6.014;2022-11-20T15:56:04;7.30;;;4.38;;
23117;SDS011;11728;50.624;6.014;2022-11-20T16:01:05;2.20;;;1.40;;
23117;SDS011;11728;50.624;6.014;2022-11-20T16:06:05;3.03;;;1.30;;
23117;SDS011;11728;50.624;6.014;2022-11-20T16:11:06;2.00;;;1.10;;
23117;SDS011;11728;50.624;6.014;2022-11-20T16:16:09;3.25;;;1.73;;
23117;SDS011;11728;50.624;6.014;2022-11-20T16:21:19;7.07;;;6.25;;
23117;SDS011;11728;50.624;6.014;2022-11-20T16:26:20;1.85;;;1.05;;
23117;SDS011;11728;50.624;6.014;2022-11-20T16:31:21;2.78;;;1.42;;
23117;SDS011;11728;50.624;6.014;2022-11-20T16:36:23;12.90;;;7.40;;
23117;SDS011;11728;50.624;6.014;2022-11-20T16:41:25;3.28;;;1.52;;
23117;SDS011;11728;50.624;6.014;2022-11-20T16:46:29;1.17;;;0.80;;
23117;SDS011;11728;50.624;6.014;2022-11-20T16:51:33;1.75;;;0.57;;
23117;SDS011;11728;50.624;6.014;2022-11-20T16:56:35;1.63;;;0.52;;
23117;SDS011;11728;50.624;6.014;2022-11-20T17:01:39;1.55;;;0.70;;
23117;SDS011;11728;50.624;6.014;2022-11-20T17:06:41;4.57;;;0.98;;
23117;SDS011;11728;50.624;6.014;2022-11-20T17:11:43;3.22;;;0.93;;
23117;SDS011;11728;50.624;6.014;2022-11-20T17:16:44;3.67;;;1.23;;
23117;SDS011;11728;50.624;6.014;2022-11-20T17:21:44;4.82;;;1.33;;
23117;SDS011;11728;50.624;6.014;2022-11-20T17:26:47;4.22;;;1.50;;
23117;SDS011;11728;50.624;6.014;2022-11-20T17:31:48;5.55;;;1.75;;
23117;SDS011;11728;50.624;6.014;2022-11-20T17:36:49;5.28;;;2.08;;
23117;SDS011;11728;50.624;6.014;2022-11-20T17:41:49;9.23;;;2.38;;
23117;SDS011;11728;50.624;6.014;2022-11-20T17:47:09;5.78;;;2.40;;
23117;SDS011;11728;50.624;6.014;2022-11-20T17:52:11;7.82;;;2.20;;
23117;SDS011;11728;50.624;6.014;2022-11-20T17:57:11;9.68;;;2.80;;
23117;SDS011;11728;50.624;6.014;2022-11-20T18:02:31;11.93;;;3.15;;
23117;SDS011;11728;50.624;6.014;2022-11-20T18:07:31;12.65;;;2.78;;
23117;SDS011;11728;50.624;6.014;2022-11-20T18:12:32;11.23;;;3.20;;
23117;SDS011;11728;50.624;6.014;2022-11-20T18:17:33;18.80;;;3.97;;
23117;SDS011;11728;50.624;6.014;2022-11-20T18:22:34;8.20;;;3.42;;
23117;SDS011;11728;50.624;6.014;2022-11-20T18:27:34;9.27;;;4.05;;
23117;SDS011;11728;50.624;6.014;2022-11-20T18:32:35;14.88;;;3.92;;
23117;SDS011;11728;50.624;6.014;2022-11-20T18:37:35;13.07;;;4.20;;
23117;SDS011;11728;50.624;6.014;2022-11-20T18:42:36;17.15;;;4.30;;
23117;SDS011;11728;50.624;6.014;2022-11-20T18:47:55;10.60;;;3.67;;
23117;SDS011;11728;50.624;6.014;2022-11-20T18:52:55;20.10;;;3.53;;
23117;SDS011;11728;50.624;6.014;2022-11-20T18:57:56;19.45;;;4.15;;
23117;SDS011;11728;50.624;6.014;2022-11-20T19:02:56;12.07;;;3.78;;
23117;SDS011;11728;50.624;6.014;2022-11-20T19:08:15;18.45;;;3.55;;
23117;SDS011;11728;50.624;6.014;2022-11-20T19:13:37;13.25;;;3.45;;
23117;SDS011;11728;50.624;6.014;2022-11-20T19:18:59;8.88;;;2.38;;
23117;SDS011;11728;50.624;6.014;2022-11-20T19:24:20;8.65;;;1.90;;
23117;SDS011;11728;50.624;6.014;2022-11-20T19:29:42;7.95;;;1.60;;
23117;SDS011;11728;50.624;6.014;2022-11-20T19:35:03;5.57;;;1.48;;
23117;SDS011;11728;50.624;6.014;2022-11-20T19:40:24;7.40;;;1.42;;
23117;SDS011;11728;50.624;6.014;2022-11-20T19:45:45;6.43;;;1.40;;
23117;SDS011;11728;50.624;6.014;2022-11-20T19:51:17;4.32;;;1.13;;
23117;SDS011;11728;50.624;6.014;2022-11-20T19:56:40;4.75;;;1.05;;
23117;SDS011;11728;50.624;6.014;2022-11-20T20:02:01;4.10;;;1.20;;
23117;SDS011;11728;50.624;6.014;2022-11-20T20:07:23;5.50;;;1.30;;
23117;SDS011;11728;50.624;6.014;2022-11-20T20:12:43;7.97;;;1.90;;
23117;SDS011;11728;50.624;6.014;2022-11-20T20:18:04;6.05;;;1.50;;
23117;SDS011;11728;50.624;6.014;2022-11-20T20:23:25;4.63;;;1.60;;
23117;SDS011;11728;50.624;6.014;2022-11-20T20:28:46;4.78;;;1.35;;
23117;SDS011;11728;50.624;6.014;2022-11-20T20:34:07;5.85;;;1.67;;
23117;SDS011;11728;50.624;6.014;2022-11-20T20:39:28;6.88;;;1.65;;
23117;SDS011;11728;50.624;6.014;2022-11-20T20:44:49;8.57;;;1.90;;
23117;SDS011;11728;50.624;6.014;2022-11-20T20:50:30;5.72;;;1.50;;
23117;SDS011;11728;50.624;6.014;2022-11-20T20:55:54;8.80;;;2.35;;
23117;SDS011;11728;50.624;6.014;2022-11-20T21:01:16;6.95;;;2.42;;
23117;SDS011;11728;50.624;6.014;2022-11-20T21:06:38;10.38;;;2.78;;
23117;SDS011;11728;50.624;6.014;2022-11-20T21:11:59;8.57;;;2.30;;
23117;SDS011;11728;50.624;6.014;2022-11-20T21:17:20;8.45;;;2.67;;
23117;SDS011;11728;50.624;6.014;2022-11-20T21:22:41;11.18;;;2.92;;
23117;SDS011;11728;50.624;6.014;2022-11-20T21:28:01;15.32;;;3.33;;
23117;SDS011;11728;50.624;6.014;2022-11-20T21:33:22;17.08;;;4.20;;
23117;SDS011;11728;50.624;6.014;2022-11-20T21:38:44;14.75;;;3.72;;
23117;SDS011;11728;50.624;6.014;2022-11-20T21:44:06;14.48;;;3.80;;
23117;SDS011;11728;50.624;6.014;2022-11-20T21:49:29;15.82;;;4.50;;
23117;SDS011;11728;50.624;6.014;2022-11-20T21:54:50;22.83;;;4.95;;
23117;SDS011;11728;50.624;6.014;2022-11-20T22:00:11;21.50;;;5.00;;
23117;SDS011;11728;50.624;6.014;2022-11-20T22:05:32;22.45;;;5.05;;
23117;SDS011;11728;50.624;6.014;2022-11-20T22:10:56;20.30;;;4.72;;
23117;SDS011;11728;50.624;6.014;2022-11-20T22:16:25;23.63;;;4.28;;
23117;SDS011;11728;50.624;6.014;2022-11-20T22:21:46;17.52;;;4.32;;
23117;SDS011;11728;50.624;6.014;2022-11-20T22:27:08;16.20;;;5.00;;
23117;SDS011;11728;50.624;6.014;2022-11-20T22:32:30;21.13;;;4.70;;
23117;SDS011;11728;50.624;6.014;2022-11-20T22:37:50;16.83;;;3.60;;
23117;SDS011;11728;50.624;6.014;2022-11-20T22:43:11;16.77;;;4.18;;
23117;SDS011;11728;50.624;6.014;2022-11-20T22:48:33;21.48;;;3.78;;
23117;SDS011;11728;50.624;6.014;2022-11-20T22:53:55;21.08;;;4.30;;
23117;SDS011;11728;50.624;6.014;2022-11-20T22:59:16;17.83;;;4.25;;
23117;SDS011;11728;50.624;6.014;2022-11-20T23:04:37;26.42;;;4.53;;
23117;SDS011;11728;50.624;6.014;2022-11-20T23:09:58;20.77;;;4.53;;
23117;SDS011;11728;50.624;6.014;2022-11-20T23:15:19;17.83;;;3.75;;
23117;SDS011;11728;50.624;6.014;2022-11-20T23:20:40;20.40;;;3.70;;
23117;SDS011;11728;50.624;6.014;2022-11-20T23:26:01;18.38;;;3.15;;
23117;SDS011;11728;50.624;6.014;2022-11-20T23:31:27;22.00;;;4.28;;
23117;SDS011;11728;50.624;6.014;2022-11-20T23:36:49;18.55;;;3.25;;
23117;SDS011;11728;50.624;6.014;2022-11-20T23:42:10;19.83;;;3.83;;
23117;SDS011;11728;50.624;6.014;2022-11-20T23:47:32;16.55;;;3.80;;
23117;SDS011;11728;50.624;6.014;2022-11-20T23:52:53;20.98;;;4.13;;
23117;SDS011;11728;50.624;6.014;2022-11-20T23:58:14;19.83;;;3.97;;
